sensor_id;sensor_type;location;lat;lon;timestamp;temperature;humidity
74294;DHT22;62688;59.904;10.738;2022-09-24T00:00:54;15.10;81.30
74294;DHT22;62688;59.904;10.738;2022-09-24T00:03:22;15.00;81.20
74294;DHT22;62688;59.904;10.738;2022-09-24T00:05:50;15.00;81.30
74294;DHT22;62688;59.904;10.738;2022-09-24T00:08:17;14.90;81.40
74294;DHT22;62688;59.904;10.738;2022-09-24T00:10:44;14.90;81.50
74294;DHT22;62688;59.904;10.738;2022-09-24T00:13:12;14.90;81.70
74294;DHT22;62688;59.904;10.738;2022-09-24T00:15:41;14.80;82.40
74294;DHT22;62688;59.904;10.738;2022-09-24T00:18:07;14.80;81.80
74294;DHT22;62688;59.904;10.738;2022-09-24T00:20:34;14.80;81.80
74294;DHT22;62688;59.904;10.738;2022-09-24T00:23:00;14.80;81.80
74294;DHT22;62688;59.904;10.738;2022-09-24T00:25:26;14.80;81.80
74294;DHT22;62688;59.904;10.738;2022-09-24T00:28:11;14.80;81.70
74294;DHT22;62688;59.904;10.738;2022-09-24T00:30:39;14.70;81.70
74294;DHT22;62688;59.904;10.738;2022-09-24T00:33:05;14.70;81.80
74294;DHT22;62688;59.904;10.738;2022-09-24T00:35:35;14.70;81.90
74294;DHT22;62688;59.904;10.738;2022-09-24T00:38:01;14.70;82.00
74294;DHT22;62688;59.904;10.738;2022-09-24T00:40:35;14.70;82.90
74294;DHT22;62688;59.904;10.738;2022-09-24T00:43:01;14.70;82.60
74294;DHT22;62688;59.904;10.738;2022-09-24T00:45:28;14.70;82.20
74294;DHT22;62688;59.904;10.738;2022-09-24T00:47:57;14.70;82.10
74294;DHT22;62688;59.904;10.738;2022-09-24T00:50:31;14.60;81.90
74294;DHT22;62688;59.904;10.738;2022-09-24T00:53:24;14.60;82.10
74294;DHT22;62688;59.904;10.738;2022-09-24T00:55:55;14.60;82.70
74294;DHT22;62688;59.904;10.738;2022-09-24T00:58:21;14.60;81.80
74294;DHT22;62688;59.904;10.738;2022-09-24T01:00:50;14.50;81.70
74294;DHT22;62688;59.904;10.738;2022-09-24T01:03:21;14.50;81.90
74294;DHT22;62688;59.904;10.738;2022-09-24T01:05:48;14.40;82.00
74294;DHT22;62688;59.904;10.738;2022-09-24T01:08:15;14.40;82.00
74294;DHT22;62688;59.904;10.738;2022-09-24T01:21:53;14.20;82.50
74294;DHT22;62688;59.904;10.738;2022-09-24T01:27:21;14.20;81.80
74294;DHT22;62688;59.904;10.738;2022-09-24T01:30:05;14.10;82.10
74294;DHT22;62688;59.904;10.738;2022-09-24T01:32:51;14.00;81.60
74294;DHT22;62688;59.904;10.738;2022-09-24T01:35:23;14.00;82.40
74294;DHT22;62688;59.904;10.738;2022-09-24T01:37:59;14.00;82.00
74294;DHT22;62688;59.904;10.738;2022-09-24T01:40:27;14.00;82.20
74294;DHT22;62688;59.904;10.738;2022-09-24T01:42:56;13.90;82.00
74294;DHT22;62688;59.904;10.738;2022-09-24T01:45:23;13.90;82.10
74294;DHT22;62688;59.904;10.738;2022-09-24T01:47:51;13.90;82.10
74294;DHT22;62688;59.904;10.738;2022-09-24T01:50:18;13.90;82.20
74294;DHT22;62688;59.904;10.738;2022-09-24T01:55:29;13.90;83.50
74294;DHT22;62688;59.904;10.738;2022-09-24T01:58:03;13.90;82.40
74294;DHT22;62688;59.904;10.738;2022-09-24T02:00:31;13.80;82.40
74294;DHT22;62688;59.904;10.738;2022-09-24T02:03:21;13.80;82.20
74294;DHT22;62688;59.904;10.738;2022-09-24T02:05:59;13.80;82.70
74294;DHT22;62688;59.904;10.738;2022-09-24T02:08:42;13.80;82.20
74294;DHT22;62688;59.904;10.738;2022-09-24T02:11:16;13.80;82.70
74294;DHT22;62688;59.904;10.738;2022-09-24T02:14:01;13.90;82.70
74294;DHT22;62688;59.904;10.738;2022-09-24T02:16:32;13.80;82.40
74294;DHT22;62688;59.904;10.738;2022-09-24T02:19:02;13.80;82.10
74294;DHT22;62688;59.904;10.738;2022-09-24T02:21:30;13.80;82.40
74294;DHT22;62688;59.904;10.738;2022-09-24T02:24:04;13.80;82.50
74294;DHT22;62688;59.904;10.738;2022-09-24T02:26:30;13.80;82.80
74294;DHT22;62688;59.904;10.738;2022-09-24T02:28:56;13.80;82.70
74294;DHT22;62688;59.904;10.738;2022-09-24T02:31:27;13.80;82.70
74294;DHT22;62688;59.904;10.738;2022-09-24T02:33:56;13.80;82.90
74294;DHT22;62688;59.904;10.738;2022-09-24T02:36:42;13.90;82.90
74294;DHT22;62688;59.904;10.738;2022-09-24T02:39:08;13.80;82.70
74294;DHT22;62688;59.904;10.738;2022-09-24T02:41:35;13.90;82.80
74294;DHT22;62688;59.904;10.738;2022-09-24T02:44:01;13.90;82.70
74294;DHT22;62688;59.904;10.738;2022-09-24T02:46:27;13.80;82.50
74294;DHT22;62688;59.904;10.738;2022-09-24T02:48:53;13.80;82.40
74294;DHT22;62688;59.904;10.738;2022-09-24T02:51:19;13.80;82.30
74294;DHT22;62688;59.904;10.738;2022-09-24T02:53:45;13.80;82.20
74294;DHT22;62688;59.904;10.738;2022-09-24T02:56:11;13.70;82.10
74294;DHT22;62688;59.904;10.738;2022-09-24T02:58:37;13.80;82.20
74294;DHT22;62688;59.904;10.738;2022-09-24T03:01:04;13.70;82.10
74294;DHT22;62688;59.904;10.738;2022-09-24T03:03:29;13.70;82.20
74294;DHT22;62688;59.904;10.738;2022-09-24T03:05:55;13.70;82.40
74294;DHT22;62688;59.904;10.738;2022-09-24T03:08:22;13.70;82.50
74294;DHT22;62688;59.904;10.738;2022-09-24T03:10:49;13.60;82.40
74294;DHT22;62688;59.904;10.738;2022-09-24T03:13:16;13.60;82.40
74294;DHT22;62688;59.904;10.738;2022-09-24T03:15:43;13.60;82.30
74294;DHT22;62688;59.904;10.738;2022-09-24T03:18:09;13.60;82.30
74294;DHT22;62688;59.904;10.738;2022-09-24T03:20:34;13.50;82.30
74294;DHT22;62688;59.904;10.738;2022-09-24T03:23:00;13.50;82.40
74294;DHT22;62688;59.904;10.738;2022-09-24T03:25:26;13.50;82.40
74294;DHT22;62688;59.904;10.738;2022-09-24T03:27:51;13.40;82.40
74294;DHT22;62688;59.904;10.738;2022-09-24T03:30:17;13.40;82.50
74294;DHT22;62688;59.904;10.738;2022-09-24T03:33:01;13.40;82.50
74294;DHT22;62688;59.904;10.738;2022-09-24T03:35:27;13.30;83.20
74294;DHT22;62688;59.904;10.738;2022-09-24T03:37:52;13.30;82.50
74294;DHT22;62688;59.904;10.738;2022-09-24T03:40:18;13.30;82.60
74294;DHT22;62688;59.904;10.738;2022-09-24T03:42:44;13.30;82.70
74294;DHT22;62688;59.904;10.738;2022-09-24T03:45:09;13.20;82.60
74294;DHT22;62688;59.904;10.738;2022-09-24T03:47:35;13.20;82.60
74294;DHT22;62688;59.904;10.738;2022-09-24T03:50:01;13.20;82.70
74294;DHT22;62688;59.904;10.738;2022-09-24T03:52:27;13.10;83.20
74294;DHT22;62688;59.904;10.738;2022-09-24T03:54:54;13.10;82.50
74294;DHT22;62688;59.904;10.738;2022-09-24T03:57:19;13.10;82.80
74294;DHT22;62688;59.904;10.738;2022-09-24T03:59:45;13.10;82.90
74294;DHT22;62688;59.904;10.738;2022-09-24T04:02:11;13.00;83.00
74294;DHT22;62688;59.904;10.738;2022-09-24T04:04:37;13.00;83.20
74294;DHT22;62688;59.904;10.738;2022-09-24T04:07:03;13.00;83.20
74294;DHT22;62688;59.904;10.738;2022-09-24T04:09:29;13.00;83.30
74294;DHT22;62688;59.904;10.738;2022-09-24T04:11:55;12.90;83.40
74294;DHT22;62688;59.904;10.738;2022-09-24T04:14:21;12.90;83.50
74294;DHT22;62688;59.904;10.738;2022-09-24T04:16:47;12.90;83.70
74294;DHT22;62688;59.904;10.738;2022-09-24T04:19:13;12.90;83.90
74294;DHT22;62688;59.904;10.738;2022-09-24T04:21:42;12.90;83.90
74294;DHT22;62688;59.904;10.738;2022-09-24T04:24:08;12.90;83.80
74294;DHT22;62688;59.904;10.738;2022-09-24T04:26:33;12.90;83.90
74294;DHT22;62688;59.904;10.738;2022-09-24T04:28:59;13.00;84.10
74294;DHT22;62688;59.904;10.738;2022-09-24T04:31:25;13.00;84.20
74294;DHT22;62688;59.904;10.738;2022-09-24T04:33:52;13.00;84.40
74294;DHT22;62688;59.904;10.738;2022-09-24T04:36:18;13.00;84.50
74294;DHT22;62688;59.904;10.738;2022-09-24T04:38:44;13.00;84.60
74294;DHT22;62688;59.904;10.738;2022-09-24T04:41:12;13.10;84.70
74294;DHT22;62688;59.904;10.738;2022-09-24T04:43:38;13.10;84.70
74294;DHT22;62688;59.904;10.738;2022-09-24T04:46:04;13.20;84.70
74294;DHT22;62688;59.904;10.738;2022-09-24T04:48:30;13.20;84.60
74294;DHT22;62688;59.904;10.738;2022-09-24T04:50:56;13.20;84.50
74294;DHT22;62688;59.904;10.738;2022-09-24T04:53:22;13.20;84.30
74294;DHT22;62688;59.904;10.738;2022-09-24T04:55:48;13.20;84.10
74294;DHT22;62688;59.904;10.738;2022-09-24T04:58:13;13.20;83.90
74294;DHT22;62688;59.904;10.738;2022-09-24T05:00:39;13.20;83.80
74294;DHT22;62688;59.904;10.738;2022-09-24T05:03:07;13.20;83.70
74294;DHT22;62688;59.904;10.738;2022-09-24T05:05:34;13.30;83.80
74294;DHT22;62688;59.904;10.738;2022-09-24T05:08:01;13.20;83.70
74294;DHT22;62688;59.904;10.738;2022-09-24T05:10:28;13.20;83.70
74294;DHT22;62688;59.904;10.738;2022-09-24T05:12:54;13.20;83.70
74294;DHT22;62688;59.904;10.738;2022-09-24T05:15:20;13.20;83.70
74294;DHT22;62688;59.904;10.738;2022-09-24T05:17:46;13.20;83.60
74294;DHT22;62688;59.904;10.738;2022-09-24T05:20:13;13.20;83.60
74294;DHT22;62688;59.904;10.738;2022-09-24T05:22:40;13.20;83.60
74294;DHT22;62688;59.904;10.738;2022-09-24T05:25:06;13.20;83.60
74294;DHT22;62688;59.904;10.738;2022-09-24T05:27:32;13.20;83.50
74294;DHT22;62688;59.904;10.738;2022-09-24T05:29:57;13.20;83.60
74294;DHT22;62688;59.904;10.738;2022-09-24T05:32:25;13.20;83.70
74294;DHT22;62688;59.904;10.738;2022-09-24T05:34:50;13.20;83.70
74294;DHT22;62688;59.904;10.738;2022-09-24T05:37:16;13.20;84.70
74294;DHT22;62688;59.904;10.738;2022-09-24T05:39:42;13.20;84.00
74294;DHT22;62688;59.904;10.738;2022-09-24T05:42:33;13.30;84.30
74294;DHT22;62688;59.904;10.738;2022-09-24T05:45:00;13.30;84.70
74294;DHT22;62688;59.904;10.738;2022-09-24T05:47:25;13.30;84.30
74294;DHT22;62688;59.904;10.738;2022-09-24T05:49:51;13.40;84.30
74294;DHT22;62688;59.904;10.738;2022-09-24T05:52:17;13.40;84.40
74294;DHT22;62688;59.904;10.738;2022-09-24T05:54:42;13.40;84.30
74294;DHT22;62688;59.904;10.738;2022-09-24T05:57:08;13.40;84.30
74294;DHT22;62688;59.904;10.738;2022-09-24T05:59:33;13.50;84.30
74294;DHT22;62688;59.904;10.738;2022-09-24T06:01:59;13.50;84.20
74294;DHT22;62688;59.904;10.738;2022-09-24T06:04:24;13.60;84.20
74294;DHT22;62688;59.904;10.738;2022-09-24T06:06:50;13.60;84.20
74294;DHT22;62688;59.904;10.738;2022-09-24T06:09:16;13.70;84.10
74294;DHT22;62688;59.904;10.738;2022-09-24T06:11:42;13.70;84.70
74294;DHT22;62688;59.904;10.738;2022-09-24T06:14:08;13.80;83.90
74294;DHT22;62688;59.904;10.738;2022-09-24T06:16:34;13.90;84.50
74294;DHT22;62688;59.904;10.738;2022-09-24T06:18:59;13.90;83.60
74294;DHT22;62688;59.904;10.738;2022-09-24T06:21:25;13.90;83.30
74294;DHT22;62688;59.904;10.738;2022-09-24T06:23:51;14.00;83.10
74294;DHT22;62688;59.904;10.738;2022-09-24T06:26:16;14.00;82.60
74294;DHT22;62688;59.904;10.738;2022-09-24T06:28:43;14.10;82.20
74294;DHT22;62688;59.904;10.738;2022-09-24T06:31:08;14.10;82.00
74294;DHT22;62688;59.904;10.738;2022-09-24T06:33:36;14.10;81.70
74294;DHT22;62688;59.904;10.738;2022-09-24T06:36:03;14.10;81.40
74294;DHT22;62688;59.904;10.738;2022-09-24T06:38:29;14.20;81.10
74294;DHT22;62688;59.904;10.738;2022-09-24T06:41:00;14.20;81.10
74294;DHT22;62688;59.904;10.738;2022-09-24T06:43:26;14.20;80.80
74294;DHT22;62688;59.904;10.738;2022-09-24T06:45:57;14.20;80.90
74294;DHT22;62688;59.904;10.738;2022-09-24T06:48:23;14.30;80.70
74294;DHT22;62688;59.904;10.738;2022-09-24T06:50:49;14.30;80.70
74294;DHT22;62688;59.904;10.738;2022-09-24T06:53:15;14.40;80.50
74294;DHT22;62688;59.904;10.738;2022-09-24T06:55:41;14.50;80.30
74294;DHT22;62688;59.904;10.738;2022-09-24T06:58:18;14.60;80.10
74294;DHT22;62688;59.904;10.738;2022-09-24T07:00:53;14.60;79.60
74294;DHT22;62688;59.904;10.738;2022-09-24T07:03:22;14.70;79.00
74294;DHT22;62688;59.904;10.738;2022-09-24T07:05:48;14.80;79.10
74294;DHT22;62688;59.904;10.738;2022-09-24T07:08:13;14.90;78.80
74294;DHT22;62688;59.904;10.738;2022-09-24T07:10:44;14.90;78.40
74294;DHT22;62688;59.904;10.738;2022-09-24T07:13:11;15.00;77.70
74294;DHT22;62688;59.904;10.738;2022-09-24T07:15:37;15.10;77.80
74294;DHT22;62688;59.904;10.738;2022-09-24T07:18:03;15.10;77.50
74294;DHT22;62688;59.904;10.738;2022-09-24T07:20:29;15.20;77.20
74294;DHT22;62688;59.904;10.738;2022-09-24T07:22:54;15.20;76.70
74294;DHT22;62688;59.904;10.738;2022-09-24T07:25:21;15.30;76.50
74294;DHT22;62688;59.904;10.738;2022-09-24T07:27:46;15.30;76.40
74294;DHT22;62688;59.904;10.738;2022-09-24T07:30:13;15.40;76.30
74294;DHT22;62688;59.904;10.738;2022-09-24T07:32:38;15.40;76.00
74294;DHT22;62688;59.904;10.738;2022-09-24T07:35:04;15.50;75.80
74294;DHT22;62688;59.904;10.738;2022-09-24T07:37:30;15.50;75.60
74294;DHT22;62688;59.904;10.738;2022-09-24T07:39:59;15.60;75.30
74294;DHT22;62688;59.904;10.738;2022-09-24T07:42:25;15.70;75.10
74294;DHT22;62688;59.904;10.738;2022-09-24T07:44:50;15.70;75.00
74294;DHT22;62688;59.904;10.738;2022-09-24T07:47:16;15.80;74.90
74294;DHT22;62688;59.904;10.738;2022-09-24T07:49:42;15.80;74.50
74294;DHT22;62688;59.904;10.738;2022-09-24T07:52:09;15.90;74.50
74294;DHT22;62688;59.904;10.738;2022-09-24T07:54:35;16.00;74.10
74294;DHT22;62688;59.904;10.738;2022-09-24T07:57:01;16.00;73.70
74294;DHT22;62688;59.904;10.738;2022-09-24T07:59:27;16.10;73.60
74294;DHT22;62688;59.904;10.738;2022-09-24T08:01:53;16.10;73.30
74294;DHT22;62688;59.904;10.738;2022-09-24T08:04:19;16.20;73.10
74294;DHT22;62688;59.904;10.738;2022-09-24T08:06:44;16.30;72.80
74294;DHT22;62688;59.904;10.738;2022-09-24T08:09:10;16.30;72.50
74294;DHT22;62688;59.904;10.738;2022-09-24T08:11:36;16.40;72.40
74294;DHT22;62688;59.904;10.738;2022-09-24T08:14:02;16.50;72.20
74294;DHT22;62688;59.904;10.738;2022-09-24T08:16:28;16.50;72.30
74294;DHT22;62688;59.904;10.738;2022-09-24T08:18:53;16.60;72.10
74294;DHT22;62688;59.904;10.738;2022-09-24T08:21:19;16.60;71.80
74294;DHT22;62688;59.904;10.738;2022-09-24T08:23:46;16.70;71.70
74294;DHT22;62688;59.904;10.738;2022-09-24T08:26:12;16.80;71.50
74294;DHT22;62688;59.904;10.738;2022-09-24T08:28:38;16.80;71.10
74294;DHT22;62688;59.904;10.738;2022-09-24T08:31:07;16.90;70.80
74294;DHT22;62688;59.904;10.738;2022-09-24T08:33:36;17.00;70.10
74294;DHT22;62688;59.904;10.738;2022-09-24T08:36:04;17.10;69.70
74294;DHT22;62688;59.904;10.738;2022-09-24T08:38:30;17.10;69.50
74294;DHT22;62688;59.904;10.738;2022-09-24T08:46:49;17.30;68.70
74294;DHT22;62688;59.904;10.738;2022-09-24T08:49:40;17.30;67.30
74294;DHT22;62688;59.904;10.738;2022-09-24T08:55:20;17.50;67.30
74294;DHT22;62688;59.904;10.738;2022-09-24T08:58:01;17.60;67.40
74294;DHT22;62688;59.904;10.738;2022-09-24T09:00:30;17.60;67.50
74294;DHT22;62688;59.904;10.738;2022-09-24T09:09:01;17.80;66.00
74294;DHT22;62688;59.904;10.738;2022-09-24T09:11:31;17.90;66.90
74294;DHT22;62688;59.904;10.738;2022-09-24T09:14:03;17.90;66.70
74294;DHT22;62688;59.904;10.738;2022-09-24T09:19:09;18.00;66.10
74294;DHT22;62688;59.904;10.738;2022-09-24T09:21:39;18.10;65.80
74294;DHT22;62688;59.904;10.738;2022-09-24T09:24:21;18.10;65.70
74294;DHT22;62688;59.904;10.738;2022-09-24T09:26:51;18.20;64.30
74294;DHT22;62688;59.904;10.738;2022-09-24T09:29:21;18.30;65.40
74294;DHT22;62688;59.904;10.738;2022-09-24T09:31:50;18.30;65.30
74294;DHT22;62688;59.904;10.738;2022-09-24T09:34:28;18.40;65.40
74294;DHT22;62688;59.904;10.738;2022-09-24T09:39:46;18.60;65.70
74294;DHT22;62688;59.904;10.738;2022-09-24T09:42:35;18.70;63.50
74294;DHT22;62688;59.904;10.738;2022-09-24T09:47:52;19.00;64.30
74294;DHT22;62688;59.904;10.738;2022-09-24T09:52:50;19.10;63.20
74294;DHT22;62688;59.904;10.738;2022-09-24T09:55:28;19.20;62.70
74294;DHT22;62688;59.904;10.738;2022-09-24T09:58:17;19.20;61.20
74294;DHT22;62688;59.904;10.738;2022-09-24T10:00:44;19.30;60.20
74294;DHT22;62688;59.904;10.738;2022-09-24T10:03:28;19.40;60.70
74294;DHT22;62688;59.904;10.738;2022-09-24T10:06:03;19.40;59.30
74294;DHT22;62688;59.904;10.738;2022-09-24T10:08:29;19.40;59.30
74294;DHT22;62688;59.904;10.738;2022-09-24T10:10:57;19.40;59.60
74294;DHT22;62688;59.904;10.738;2022-09-24T10:13:24;19.40;58.70
74294;DHT22;62688;59.904;10.738;2022-09-24T10:15:58;19.40;58.90
74294;DHT22;62688;59.904;10.738;2022-09-24T10:18:42;19.40;58.80
74294;DHT22;62688;59.904;10.738;2022-09-24T10:21:10;19.30;58.20
74294;DHT22;62688;59.904;10.738;2022-09-24T10:23:41;19.40;58.90
74294;DHT22;62688;59.904;10.738;2022-09-24T10:26:08;19.30;58.80
74294;DHT22;62688;59.904;10.738;2022-09-24T10:28:40;19.30;59.40
74294;DHT22;62688;59.904;10.738;2022-09-24T10:31:30;19.40;58.80
74294;DHT22;62688;59.904;10.738;2022-09-24T10:33:58;19.40;59.10
74294;DHT22;62688;59.904;10.738;2022-09-24T10:36:27;19.40;59.20
74294;DHT22;62688;59.904;10.738;2022-09-24T10:39:13;19.50;59.10
74294;DHT22;62688;59.904;10.738;2022-09-24T10:41:49;19.60;57.90
74294;DHT22;62688;59.904;10.738;2022-09-24T10:44:15;19.70;58.20
74294;DHT22;62688;59.904;10.738;2022-09-24T11:00:44;20.30;57.80
74294;DHT22;62688;59.904;10.738;2022-09-24T11:05:53;20.40;55.70
74294;DHT22;62688;59.904;10.738;2022-09-24T11:16:59;20.40;56.40
74294;DHT22;62688;59.904;10.738;2022-09-24T11:19:40;20.40;55.60
74294;DHT22;62688;59.904;10.738;2022-09-24T11:30:17;20.40;55.90
74294;DHT22;62688;59.904;10.738;2022-09-24T11:38:20;20.20;55.10
74294;DHT22;62688;59.904;10.738;2022-09-24T11:43:52;20.10;55.30
74294;DHT22;62688;59.904;10.738;2022-09-24T11:57:33;20.00;55.60
74294;DHT22;62688;59.904;10.738;2022-09-24T12:00:15;20.00;55.00
74294;DHT22;62688;59.904;10.738;2022-09-24T12:03:15;19.90;54.80
74294;DHT22;62688;59.904;10.738;2022-09-24T12:05:49;19.90;55.10
74294;DHT22;62688;59.904;10.738;2022-09-24T12:08:31;19.90;55.20
74294;DHT22;62688;59.904;10.738;2022-09-24T12:11:17;19.80;55.10
74294;DHT22;62688;59.904;10.738;2022-09-24T12:13:48;19.80;55.00
74294;DHT22;62688;59.904;10.738;2022-09-24T12:16:25;19.70;55.60
74294;DHT22;62688;59.904;10.738;2022-09-24T12:18:59;19.70;55.40
74294;DHT22;62688;59.904;10.738;2022-09-24T12:21:46;19.70;55.60
74294;DHT22;62688;59.904;10.738;2022-09-24T12:24:19;19.70;55.30
74294;DHT22;62688;59.904;10.738;2022-09-24T12:26:46;19.60;55.60
74294;DHT22;62688;59.904;10.738;2022-09-24T12:29:35;19.60;55.50
74294;DHT22;62688;59.904;10.738;2022-09-24T12:32:41;19.50;54.70
74294;DHT22;62688;59.904;10.738;2022-09-24T12:37:59;19.40;55.50
74294;DHT22;62688;59.904;10.738;2022-09-24T12:45:57;19.20;55.50
74294;DHT22;62688;59.904;10.738;2022-09-24T12:48:25;19.20;55.80
74294;DHT22;62688;59.904;10.738;2022-09-24T12:50:56;19.10;56.00
74294;DHT22;62688;59.904;10.738;2022-09-24T12:53:23;19.10;55.70
74294;DHT22;62688;59.904;10.738;2022-09-24T12:55:58;19.10;56.10
74294;DHT22;62688;59.904;10.738;2022-09-24T12:58:40;19.00;55.90
74294;DHT22;62688;59.904;10.738;2022-09-24T13:01:13;19.00;55.80
74294;DHT22;62688;59.904;10.738;2022-09-24T13:06:42;19.00;56.10
74294;DHT22;62688;59.904;10.738;2022-09-24T13:09:37;19.10;56.70
74294;DHT22;62688;59.904;10.738;2022-09-24T13:17:40;19.10;56.10
74294;DHT22;62688;59.904;10.738;2022-09-24T13:20:31;19.10;56.40
74294;DHT22;62688;59.904;10.738;2022-09-24T13:25:37;19.10;55.30
74294;DHT22;62688;59.904;10.738;2022-09-24T13:28:25;19.20;56.00
74294;DHT22;62688;59.904;10.738;2022-09-24T13:30:57;19.20;55.20
74294;DHT22;62688;59.904;10.738;2022-09-24T13:33:27;19.20;55.60
74294;DHT22;62688;59.904;10.738;2022-09-24T13:41:37;19.40;55.50
74294;DHT22;62688;59.904;10.738;2022-09-24T13:44:32;19.50;55.40
74294;DHT22;62688;59.904;10.738;2022-09-24T13:47:09;19.70;55.50
74294;DHT22;62688;59.904;10.738;2022-09-24T13:49:40;19.90;56.90
74294;DHT22;62688;59.904;10.738;2022-09-24T13:52:13;20.40;57.60
74294;DHT22;62688;59.904;10.738;2022-09-24T13:54:48;21.10;56.70
74294;DHT22;62688;59.904;10.738;2022-09-24T13:57:24;21.60;55.30
74294;DHT22;62688;59.904;10.738;2022-09-24T14:00:22;22.10;52.60
74294;DHT22;62688;59.904;10.738;2022-09-24T14:05:17;22.80;52.00
74294;DHT22;62688;59.904;10.738;2022-09-24T14:08:04;23.20;51.40
74294;DHT22;62688;59.904;10.738;2022-09-24T14:10:31;23.60;49.60
74294;DHT22;62688;59.904;10.738;2022-09-24T14:18:20;24.60;47.30
74294;DHT22;62688;59.904;10.738;2022-09-24T14:21:32;24.70;47.00
74294;DHT22;62688;59.904;10.738;2022-09-24T14:23:58;24.80;45.10
74294;DHT22;62688;59.904;10.738;2022-09-24T14:26:42;25.00;44.90
74294;DHT22;62688;59.904;10.738;2022-09-24T14:29:16;25.40;44.60
74294;DHT22;62688;59.904;10.738;2022-09-24T14:31:46;26.10;46.40
74294;DHT22;62688;59.904;10.738;2022-09-24T14:34:37;26.80;47.40
74294;DHT22;62688;59.904;10.738;2022-09-24T14:37:16;27.60;44.50
74294;DHT22;62688;59.904;10.738;2022-09-24T14:39:46;28.50;43.70
74294;DHT22;62688;59.904;10.738;2022-09-24T14:42:23;29.20;43.50
74294;DHT22;62688;59.904;10.738;2022-09-24T14:44:50;29.60;39.90
74294;DHT22;62688;59.904;10.738;2022-09-24T14:47:26;29.90;39.90
74294;DHT22;62688;59.904;10.738;2022-09-24T14:49:53;30.00;37.50
74294;DHT22;62688;59.904;10.738;2022-09-24T14:52:37;30.10;37.70
74294;DHT22;62688;59.904;10.738;2022-09-24T14:55:18;30.10;35.90
74294;DHT22;62688;59.904;10.738;2022-09-24T14:57:45;30.00;34.70
74294;DHT22;62688;59.904;10.738;2022-09-24T15:00:35;29.80;35.50
74294;DHT22;62688;59.904;10.738;2022-09-24T15:03:14;29.40;34.50
74294;DHT22;62688;59.904;10.738;2022-09-24T15:05:40;29.20;35.20
74294;DHT22;62688;59.904;10.738;2022-09-24T15:10:57;29.40;37.20
74294;DHT22;62688;59.904;10.738;2022-09-24T15:13:35;29.70;37.20
74294;DHT22;62688;59.904;10.738;2022-09-24T15:16:25;30.10;36.00
74294;DHT22;62688;59.904;10.738;2022-09-24T15:19:24;30.60;35.90
74294;DHT22;62688;59.904;10.738;2022-09-24T15:21:56;31.20;33.90
74294;DHT22;62688;59.904;10.738;2022-09-24T15:24:23;31.60;37.00
74294;DHT22;62688;59.904;10.738;2022-09-24T15:27:04;32.10;36.00
74294;DHT22;62688;59.904;10.738;2022-09-24T15:29:30;32.50;33.00
74294;DHT22;62688;59.904;10.738;2022-09-24T15:31:57;32.80;33.30
74294;DHT22;62688;59.904;10.738;2022-09-24T15:34:23;33.10;32.40
74294;DHT22;62688;59.904;10.738;2022-09-24T15:36:58;33.40;31.90
74294;DHT22;62688;59.904;10.738;2022-09-24T15:39:25;33.70;29.90
74294;DHT22;62688;59.904;10.738;2022-09-24T15:41:51;34.00;31.00
74294;DHT22;62688;59.904;10.738;2022-09-24T15:44:24;34.20;30.40
74294;DHT22;62688;59.904;10.738;2022-09-24T15:46:50;34.50;29.70
74294;DHT22;62688;59.904;10.738;2022-09-24T15:49:17;34.70;29.80
74294;DHT22;62688;59.904;10.738;2022-09-24T15:51:50;34.80;28.90
74294;DHT22;62688;59.904;10.738;2022-09-24T15:54:16;35.00;29.00
74294;DHT22;62688;59.904;10.738;2022-09-24T15:56:42;35.10;28.70
74294;DHT22;62688;59.904;10.738;2022-09-24T15:59:13;35.20;28.20
74294;DHT22;62688;59.904;10.738;2022-09-24T16:01:40;35.20;26.60
74294;DHT22;62688;59.904;10.738;2022-09-24T16:04:08;35.20;27.70
74294;DHT22;62688;59.904;10.738;2022-09-24T16:06:35;35.20;27.30
74294;DHT22;62688;59.904;10.738;2022-09-24T16:09:01;35.10;27.40
74294;DHT22;62688;59.904;10.738;2022-09-24T16:11:27;35.10;27.30
74294;DHT22;62688;59.904;10.738;2022-09-24T16:13:52;34.90;27.60
74294;DHT22;62688;59.904;10.738;2022-09-24T16:16:18;34.80;27.30
74294;DHT22;62688;59.904;10.738;2022-09-24T16:18:43;34.80;27.30
74294;DHT22;62688;59.904;10.738;2022-09-24T16:21:09;34.70;27.20
74294;DHT22;62688;59.904;10.738;2022-09-24T16:23:59;34.50;27.00
74294;DHT22;62688;59.904;10.738;2022-09-24T16:26:27;34.30;26.60
74294;DHT22;62688;59.904;10.738;2022-09-24T16:28:53;33.90;26.70
74294;DHT22;62688;59.904;10.738;2022-09-24T16:31:19;33.50;26.90
74294;DHT22;62688;59.904;10.738;2022-09-24T16:33:45;33.10;27.00
74294;DHT22;62688;59.904;10.738;2022-09-24T16:36:11;32.70;27.30
74294;DHT22;62688;59.904;10.738;2022-09-24T16:38:37;32.40;27.50
74294;DHT22;62688;59.904;10.738;2022-09-24T16:41:05;31.90;27.50
74294;DHT22;62688;59.904;10.738;2022-09-24T16:43:31;31.50;27.70
74294;DHT22;62688;59.904;10.738;2022-09-24T16:46:01;30.80;27.70
74294;DHT22;62688;59.904;10.738;2022-09-24T16:48:28;30.10;27.70
74294;DHT22;62688;59.904;10.738;2022-09-24T16:50:59;29.50;28.40
74294;DHT22;62688;59.904;10.738;2022-09-24T16:53:25;28.80;29.30
74294;DHT22;62688;59.904;10.738;2022-09-24T16:55:50;28.30;29.60
74294;DHT22;62688;59.904;10.738;2022-09-24T16:58:16;27.70;30.00
74294;DHT22;62688;59.904;10.738;2022-09-24T17:00:41;27.30;30.70
74294;DHT22;62688;59.904;10.738;2022-09-24T17:03:09;26.80;31.10
74294;DHT22;62688;59.904;10.738;2022-09-24T17:05:38;26.30;31.50
74294;DHT22;62688;59.904;10.738;2022-09-24T17:08:05;25.80;32.00
74294;DHT22;62688;59.904;10.738;2022-09-24T17:10:30;25.20;32.50
74294;DHT22;62688;59.904;10.738;2022-09-24T17:12:56;24.70;33.20
74294;DHT22;62688;59.904;10.738;2022-09-24T17:15:22;24.20;34.00
74294;DHT22;62688;59.904;10.738;2022-09-24T17:17:47;23.70;34.70
74294;DHT22;62688;59.904;10.738;2022-09-24T17:20:14;23.20;35.40
74294;DHT22;62688;59.904;10.738;2022-09-24T17:22:40;22.80;36.10
74294;DHT22;62688;59.904;10.738;2022-09-24T17:25:07;22.40;36.90
74294;DHT22;62688;59.904;10.738;2022-09-24T17:27:33;22.00;37.60
74294;DHT22;62688;59.904;10.738;2022-09-24T17:30:00;21.60;38.20
74294;DHT22;62688;59.904;10.738;2022-09-24T17:32:26;21.20;38.80
74294;DHT22;62688;59.904;10.738;2022-09-24T17:34:52;20.90;39.50
74294;DHT22;62688;59.904;10.738;2022-09-24T17:37:18;20.50;40.10
74294;DHT22;62688;59.904;10.738;2022-09-24T17:39:44;20.20;40.70
74294;DHT22;62688;59.904;10.738;2022-09-24T17:42:10;19.90;41.40
74294;DHT22;62688;59.904;10.738;2022-09-24T17:44:35;19.60;42.00